Current Weather

Sydney Intl

Sydney Intl, Australia (YSSY)

Report from: Sunday, November 27, 2022 8:30 PM AEDT
Current time: Sunday, November 27, 2022 8:44 PM AEDT

Nearby weather
Weather history
Weather forecast

Present weatherVCSH
Temperature22.0°C (71.6°F)
Dew point17.0°C (62.6°F)
Winds 3 kts (1.5 m/s, 3.5 mph) West-Southwest (250°)
Visibility6.2 mi. (10 km)
Clouds Few clouds 4,500 ft. (1,372 m)
Ceiling: Broken clouds 11,000 ft. (3,353 m)
Broken clouds 21,000 ft. (6,401 m)
Altimeter29.59 in.Hg (1002 mB)
Relative humidity73 %
Density altitude1,462 ft. (446 m)
Flight conditions Visual Meteorological Conditions
Raw dataYSSY 270930Z 25003KT 9999 VCSH FEW045 BKN110 BKN210 22/17 Q1002
An error has occurred. This application may no longer respond until reloaded. Reload 🗙